createdAt,value
2022-10-04T00:01:44.132Z,101399.88
2022-10-04T00:04:18.316Z,101398.19
2022-10-04T00:07:01.598Z,101399.06
2022-10-04T00:09:43.289Z,101397.66
2022-10-04T00:12:23.855Z,101399.53
2022-10-04T00:14:55.259Z,101399.53
2022-10-04T00:17:28.175Z,101396.06
2022-10-04T00:19:56.407Z,101399.97
2022-10-04T00:22:26.233Z,101390.13
2022-10-04T00:25:10.045Z,101400.50
2022-10-04T00:27:38.970Z,101396.22
2022-10-04T00:30:22.127Z,101393.84
2022-10-04T00:33:03.588Z,101392.38
2022-10-04T00:35:30.970Z,101392.72
2022-10-04T00:38:00.911Z,101390.31
2022-10-04T00:40:33.797Z,101388.72
2022-10-04T00:43:15.950Z,101394.75
2022-10-04T00:45:52.407Z,101383.03
2022-10-04T00:48:44.004Z,101391.41
2022-10-04T00:51:25.322Z,101405.22
2022-10-04T00:53:57.353Z,101401.88
2022-10-04T00:56:31.280Z,101396.00
2022-10-04T00:59:21.188Z,101405.72
2022-10-04T01:01:58.415Z,101403.41
2022-10-04T01:04:28.886Z,101398.38
2022-10-04T01:07:01.381Z,101408.66
2022-10-04T01:09:32.838Z,101395.72
2022-10-04T01:12:05.820Z,101397.22
2022-10-04T01:14:48.858Z,101395.41
2022-10-04T01:17:16.107Z,101396.22
2022-10-04T01:19:53.575Z,101389.56
2022-10-04T01:22:29.802Z,101397.81
2022-10-04T01:24:57.453Z,101395.63
2022-10-04T01:27:32.185Z,101391.28
2022-10-04T01:30:00.546Z,101386.63
2022-10-04T01:32:28.160Z,101383.09
2022-10-04T01:34:56.326Z,101379.53
2022-10-04T01:37:23.868Z,101377.44
2022-10-04T01:39:51.318Z,101379.81
2022-10-04T01:42:23.729Z,101378.50
2022-10-04T01:44:57.253Z,101378.97
2022-10-04T01:47:31.262Z,101381.56
2022-10-04T01:50:03.619Z,101370.22
2022-10-04T01:52:41.848Z,101379.16
2022-10-04T01:55:15.721Z,101370.25
2022-10-04T01:57:50.492Z,101370.34
2022-10-04T02:00:21.568Z,101362.00
2022-10-04T02:02:58.433Z,101369.56
2022-10-04T02:05:35.119Z,101369.81
2022-10-04T02:08:10.414Z,101364.53
2022-10-04T02:10:43.583Z,101359.63
2022-10-04T02:13:18.118Z,101359.13
2022-10-04T02:15:47.607Z,101362.22
2022-10-04T02:18:18.670Z,101361.31
2022-10-04T02:20:49.619Z,101359.47
2022-10-04T02:23:19.994Z,101363.28
2022-10-04T02:25:47.638Z,101360.00
2022-10-04T02:28:16.541Z,101358.75
2022-10-04T02:31:08.212Z,101358.19
2022-10-04T02:33:44.887Z,101356.50
2022-10-04T02:36:13.876Z,101359.41
2022-10-04T02:38:55.274Z,101354.66
2022-10-04T02:41:41.479Z,101353.75
2022-10-04T02:44:20.517Z,101359.56
2022-10-04T02:46:57.261Z,101359.66
2022-10-04T02:49:38.573Z,101355.41
2022-10-04T02:52:10.253Z,101361.38
2022-10-04T02:54:49.614Z,101367.13
2022-10-04T02:57:19.899Z,101360.97
2022-10-04T02:59:48.636Z,101366.53
2022-10-04T03:02:31.102Z,101365.69
2022-10-04T03:05:05.975Z,101365.16
2022-10-04T03:07:35.886Z,101368.25
2022-10-04T03:10:08.481Z,101365.97
2022-10-04T03:12:37.518Z,101376.41
2022-10-04T03:15:09.511Z,101373.88
2022-10-04T03:17:36.927Z,101382.13
2022-10-04T03:20:06.091Z,101382.81
2022-10-04T03:22:33.466Z,101386.25
2022-10-04T03:25:01.619Z,101382.47
2022-10-04T03:27:33.983Z,101377.38
2022-10-04T03:30:02.062Z,101378.69
2022-10-04T03:32:31.195Z,101380.81
2022-10-04T03:35:05.991Z,101385.53
2022-10-04T03:37:37.679Z,101381.06
2022-10-04T03:40:09.783Z,101384.75
2022-10-04T03:42:39.317Z,101384.75
2022-10-04T03:45:11.743Z,101386.47
2022-10-04T03:47:43.355Z,101396.78
2022-10-04T03:50:13.685Z,101394.03
2022-10-04T03:52:50.850Z,101394.84
2022-10-04T03:55:19.692Z,101397.59
2022-10-04T03:57:47.291Z,101404.34
2022-10-04T04:00:17.418Z,101406.28
2022-10-04T04:02:49.083Z,101395.41
2022-10-04T04:05:25.504Z,101410.41
2022-10-04T04:08:14.625Z,101406.97
2022-10-04T04:10:55.178Z,101406.97
2022-10-04T04:13:27.615Z,101398.94
2022-10-04T04:15:57.027Z,101399.50
2022-10-04T04:18:28.033Z,101406.38
2022-10-04T04:20:59.118Z,101402.63
2022-10-04T04:23:32.965Z,101403.63
2022-10-04T04:26:12.042Z,101410.84
2022-10-04T04:28:44.910Z,101406.50
2022-10-04T04:31:24.235Z,101407.16
2022-10-04T04:34:00.677Z,101406.00
2022-10-04T04:36:40.062Z,101419.09
2022-10-04T04:39:34.684Z,101420.81
2022-10-04T04:42:06.839Z,101413.69
2022-10-04T04:44:36.394Z,101418.41
2022-10-04T04:47:09.559Z,101416.22
2022-10-04T04:49:40.198Z,101415.09
2022-10-04T04:52:16.872Z,101422.41
2022-10-04T04:54:47.426Z,101425.41
2022-10-04T04:57:17.960Z,101427.78
2022-10-04T04:59:49.446Z,101422.78
2022-10-04T05:02:37.809Z,101430.19
2022-10-04T05:05:16.502Z,101437.53
2022-10-04T05:07:43.879Z,101442.81
2022-10-04T05:10:33.803Z,101442.81
2022-10-04T05:13:04.319Z,101451.84
2022-10-04T05:15:35.290Z,101453.09
2022-10-04T05:18:15.395Z,101450.47
2022-10-04T05:20:50.355Z,101445.09
2022-10-04T05:23:17.780Z,101444.63
2022-10-04T05:25:48.032Z,101447.78
2022-10-04T05:28:17.676Z,101444.38
2022-10-04T05:31:10.844Z,101444.84
2022-10-04T05:33:54.061Z,101457.91
2022-10-04T05:36:30.312Z,101453.00
2022-10-04T05:39:06.754Z,101457.69
2022-10-04T05:41:47.125Z,101456.88
2022-10-04T05:44:28.966Z,101458.84
2022-10-04T05:46:59.546Z,101457.66
2022-10-04T05:49:33.645Z,101461.78
2022-10-04T05:52:13.914Z,101459.50
2022-10-04T05:54:41.564Z,101468.19
2022-10-04T05:57:50.862Z,101472.44
2022-10-04T06:00:21.086Z,101471.06
2022-10-04T06:03:13.824Z,101463.03
2022-10-04T06:05:49.848Z,101467.03
2022-10-04T06:08:26.113Z,101465.28
2022-10-04T06:11:05.528Z,101465.91
2022-10-04T06:13:59.458Z,101464.47
2022-10-04T06:16:45.158Z,101474.72
2022-10-04T06:19:43.375Z,101479.41
2022-10-04T06:22:22.745Z,101478.28
2022-10-04T06:25:13.990Z,101476.44
2022-10-04T06:27:44.879Z,101482.72
2022-10-04T06:30:16.586Z,101480.63
2022-10-04T06:33:11.716Z,101498.00
2022-10-04T06:36:18.783Z,101497.31
2022-10-04T06:39:04.416Z,101496.72
2022-10-04T06:41:39.392Z,101506.50
2022-10-04T06:44:14.667Z,101503.69
2022-10-04T06:47:08.921Z,101512.13
2022-10-04T06:49:48.814Z,101512.59
2022-10-04T06:52:31.139Z,101513.94
2022-10-04T06:55:16.867Z,101525.28
2022-10-04T06:58:17.438Z,101522.09
2022-10-04T07:00:55.435Z,101516.41
2022-10-04T07:03:49.243Z,101512.41
2022-10-04T07:06:30.995Z,101523.16
2022-10-04T07:09:03.423Z,101523.09
2022-10-04T07:11:45.861Z,101525.50
2022-10-04T07:14:18.719Z,101529.28
2022-10-04T07:16:54.716Z,101535.34
2022-10-04T07:19:32.565Z,101531.69
2022-10-04T07:22:10.191Z,101542.31
2022-10-04T07:25:02.354Z,101539.25
2022-10-04T07:27:34.542Z,101537.72
2022-10-04T07:30:06.922Z,101536.34
2022-10-04T07:32:44.054Z,101523.56
2022-10-04T07:35:15.012Z,101538.34
2022-10-04T07:38:15.812Z,101534.81
2022-10-04T07:41:08.444Z,101541.63
2022-10-04T07:43:49.736Z,101547.56
2022-10-04T07:46:17.023Z,101545.59
2022-10-04T07:48:44.619Z,101543.47
2022-10-04T07:51:44.815Z,101541.47
2022-10-04T07:54:22.407Z,101543.56
2022-10-04T07:57:01.303Z,101545.94
2022-10-04T07:59:37.526Z,101544.34
2022-10-04T08:02:41.372Z,101555.94
2022-10-04T08:05:21.883Z,101561.16
2022-10-04T08:08:17.205Z,101560.50
2022-10-04T08:11:06.443Z,101567.53
2022-10-04T08:13:52.585Z,101563.81
2022-10-04T08:16:34.449Z,101569.06
2022-10-04T08:19:19.834Z,101568.75
2022-10-04T08:22:05.592Z,101571.94
2022-10-04T08:24:53.884Z,101567.72
2022-10-04T08:28:08.464Z,101570.31
2022-10-04T08:31:27.852Z,101568.97
2022-10-04T08:34:17.890Z,101575.41
2022-10-04T08:40:19.119Z,101574.59
2022-10-04T08:43:04.435Z,101576.66
2022-10-04T08:45:52.840Z,101577.81
2022-10-04T08:48:32.963Z,101575.66
2022-10-04T08:51:24.952Z,101575.81
2022-10-04T08:54:25.090Z,101573.31
2022-10-04T08:57:20.104Z,101565.19
2022-10-04T09:00:15.221Z,101572.13
2022-10-04T09:03:01.568Z,101574.28
2022-10-04T09:05:47.592Z,101567.94
2022-10-04T09:08:26.650Z,101565.63
2022-10-04T09:11:25.679Z,101553.44
2022-10-04T09:14:08.048Z,101556.22
2022-10-04T09:17:22.338Z,101560.03
2022-10-04T09:20:37.764Z,101569.16
2022-10-04T09:23:14.886Z,101560.03
2022-10-04T09:26:06.545Z,101562.59
2022-10-04T09:28:45.929Z,101562.00
2022-10-04T09:31:39.862Z,101564.44
2022-10-04T09:34:38.697Z,101569.69
2022-10-04T09:37:32.654Z,101573.34
2022-10-04T09:40:37.335Z,101575.41
2022-10-04T09:43:48.455Z,101575.34
2022-10-04T09:47:10.519Z,101573.72
2022-10-04T09:50:03.637Z,101575.44
2022-10-04T09:52:40.066Z,101576.22
2022-10-04T09:55:37.320Z,101570.66
2022-10-04T09:58:43.438Z,101567.41
2022-10-04T10:01:23.203Z,101565.41
2022-10-04T10:04:04.583Z,101572.19
2022-10-04T10:06:59.517Z,101574.53
2022-10-04T10:09:56.113Z,101565.44
2022-10-04T10:12:50.553Z,101568.88
2022-10-04T10:15:22.686Z,101563.28
2022-10-04T10:18:01.656Z,101573.66
2022-10-04T10:20:46.895Z,101566.19
2022-10-04T10:23:32.297Z,101570.25
2022-10-04T10:26:18.995Z,101563.03
2022-10-04T10:29:25.301Z,101573.44
2022-10-04T10:32:29.645Z,101577.81
2022-10-04T10:35:15.571Z,101577.72
2022-10-04T10:38:04.913Z,101575.25
2022-10-04T10:40:59.904Z,101578.38
2022-10-04T10:43:55.515Z,101575.19
2022-10-04T10:46:48.358Z,101578.47
2022-10-04T10:49:38.120Z,101576.59
2022-10-04T10:52:46.770Z,101575.06
2022-10-04T10:55:48.252Z,101564.56
2022-10-04T10:58:27.836Z,101564.38
2022-10-04T11:01:36.294Z,101565.28
2022-10-04T11:04:09.768Z,101571.91
2022-10-04T11:07:04.190Z,101566.00
2022-10-04T11:10:07.088Z,101564.94
2022-10-04T11:13:09.655Z,101560.41
2022-10-04T11:15:52.421Z,101563.94
2022-10-04T11:18:28.726Z,101565.91
2022-10-04T11:21:34.917Z,101569.03
2022-10-04T11:24:30.042Z,101566.19
2022-10-04T11:27:18.810Z,101568.94
2022-10-04T11:30:15.239Z,101565.41
2022-10-04T11:33:20.883Z,101564.88
2022-10-04T11:36:08.191Z,101575.00
2022-10-04T11:38:56.672Z,101570.88
2022-10-04T11:41:39.348Z,101580.19
2022-10-04T11:44:18.590Z,101570.38
2022-10-04T11:46:52.096Z,101567.34
2022-10-04T11:49:56.571Z,101569.25
2022-10-04T11:53:03.194Z,101561.34
2022-10-04T11:55:46.156Z,101559.25
2022-10-04T11:58:35.085Z,101556.63
2022-10-04T12:01:21.922Z,101553.44
2022-10-04T12:04:06.006Z,101560.69
2022-10-04T12:06:45.754Z,101552.63
2022-10-04T12:09:49.826Z,101551.63
2022-10-04T12:12:38.243Z,101547.78
2022-10-04T12:15:28.116Z,101554.78
2022-10-04T12:18:20.176Z,101555.22
2022-10-04T12:21:24.291Z,101555.25
2022-10-04T12:24:09.112Z,101564.25
2022-10-04T12:27:04.582Z,101553.78
2022-10-04T12:29:50.288Z,101555.00
2022-10-04T12:32:30.330Z,101557.81
2022-10-04T12:35:30.018Z,101553.38
2022-10-04T12:38:12.423Z,101544.03
2022-10-04T12:41:03.814Z,101542.94
2022-10-04T12:43:56.745Z,101537.38
2022-10-04T12:46:33.390Z,101540.94
2022-10-04T12:49:01.134Z,101543.00
2022-10-04T12:51:45.393Z,101535.44
2022-10-04T12:54:32.030Z,101539.22
2022-10-04T12:57:31.503Z,101537.16
2022-10-04T13:00:06.222Z,101539.25
2022-10-04T13:02:42.841Z,101534.94
2022-10-04T13:05:22.275Z,101538.44
2022-10-04T13:08:05.756Z,101528.97
2022-10-04T13:10:51.244Z,101534.59
2022-10-04T13:13:41.125Z,101531.63
2022-10-04T13:19:21.336Z,101522.63
2022-10-04T13:22:07.329Z,101526.63
2022-10-04T13:25:02.415Z,101532.13
2022-10-04T13:27:51.386Z,101526.16
2022-10-04T13:30:27.746Z,101525.63
2022-10-04T13:33:10.279Z,101524.41
2022-10-04T13:35:41.076Z,101519.25
2022-10-04T13:38:36.391Z,101520.28
2022-10-04T13:41:15.130Z,101515.47
2022-10-04T13:44:02.471Z,101515.41
2022-10-04T13:46:36.907Z,101511.94
2022-10-04T13:49:29.545Z,101503.91
2022-10-04T13:52:40.441Z,101511.34
2022-10-04T13:55:53.990Z,101503.81
2022-10-04T13:59:18.770Z,101509.81
2022-10-04T14:02:22.635Z,101499.97
2022-10-04T14:05:23.567Z,101511.16
2022-10-04T14:07:51.435Z,101508.00
2022-10-04T14:10:49.374Z,101504.53
2022-10-04T14:14:00.306Z,101508.69
2022-10-04T14:16:35.410Z,101504.25
2022-10-04T14:19:14.598Z,101506.63
2022-10-04T14:21:54.250Z,101507.19
2022-10-04T14:24:33.339Z,101510.69
2022-10-04T14:27:12.510Z,101507.50
2022-10-04T14:29:54.637Z,101509.41
2022-10-04T14:32:42.641Z,101511.66
2022-10-04T14:35:09.792Z,101518.06
2022-10-04T14:38:12.332Z,101514.34
2022-10-04T14:41:18.259Z,101499.00
2022-10-04T14:43:58.526Z,101506.91
2022-10-04T14:46:43.409Z,101501.97
2022-10-04T14:49:19.691Z,101511.34
2022-10-04T14:52:37.969Z,101510.50
2022-10-04T14:55:27.222Z,101508.47
2022-10-04T14:58:34.782Z,101510.59
2022-10-04T15:01:19.878Z,101507.34
2022-10-04T15:04:12.830Z,101500.72
2022-10-04T15:07:01.964Z,101498.44
2022-10-04T15:09:46.602Z,101499.25
2022-10-04T15:13:08.849Z,101492.81
2022-10-04T15:15:33.595Z,101498.72
2022-10-04T15:18:10.865Z,101505.94
2022-10-04T15:20:54.088Z,101504.56
2022-10-04T15:23:42.342Z,101500.94
2022-10-04T15:26:32.388Z,101503.44
2022-10-04T15:29:23.800Z,101505.63
2022-10-04T15:32:17.671Z,101513.97
2022-10-04T15:35:06.066Z,101506.53
2022-10-04T15:37:55.932Z,101502.66
2022-10-04T15:40:35.212Z,101502.94
2022-10-04T15:43:17.382Z,101503.03
2022-10-04T15:46:23.905Z,101512.16
2022-10-04T15:49:09.881Z,101519.63
2022-10-04T15:51:41.524Z,101522.06
2022-10-04T15:54:43.295Z,101524.81
2022-10-04T15:57:27.028Z,101525.88
2022-10-04T16:00:22.207Z,101531.13
2022-10-04T16:02:55.605Z,101538.13
2022-10-04T16:05:37.332Z,101537.19
2022-10-04T16:08:19.962Z,101538.38
2022-10-04T16:11:00.437Z,101544.38
2022-10-04T16:13:44.676Z,101547.34
2022-10-04T16:16:19.685Z,101547.25
2022-10-04T16:19:00.834Z,101550.09
2022-10-04T16:21:46.961Z,101547.53
2022-10-04T16:24:42.119Z,101555.28
2022-10-04T16:27:46.196Z,101555.31
2022-10-04T16:30:28.092Z,101559.59
2022-10-04T16:32:58.622Z,101561.53
2022-10-04T16:35:39.994Z,101561.41
2022-10-04T16:38:13.272Z,101573.22
2022-10-04T16:40:52.543Z,101578.63
2022-10-04T16:43:19.772Z,101580.06
2022-10-04T16:46:09.924Z,101582.50
2022-10-04T16:48:55.588Z,101585.72
2022-10-04T16:51:44.364Z,101589.84
2022-10-04T16:54:31.094Z,101596.31
2022-10-04T16:56:59.237Z,101599.94
2022-10-04T16:59:38.665Z,101600.59
2022-10-04T17:02:15.158Z,101613.63
2022-10-04T17:05:30.085Z,101611.81
2022-10-04T17:08:15.387Z,101610.63
2022-10-04T17:10:48.546Z,101616.97
2022-10-04T17:13:39.087Z,101620.34
2022-10-04T17:16:13.739Z,101632.13
2022-10-04T17:19:12.979Z,101636.19
2022-10-04T17:21:46.258Z,101640.19
2022-10-04T17:24:40.794Z,101639.69
2022-10-04T17:27:46.515Z,101638.50
2022-10-04T17:30:24.264Z,101633.97
2022-10-04T17:33:19.619Z,101649.75
2022-10-04T17:36:18.467Z,101657.25
2022-10-04T17:39:06.003Z,101658.47
2022-10-04T17:41:36.416Z,101659.41
2022-10-04T17:44:24.405Z,101655.72
2022-10-04T17:47:14.129Z,101665.50
2022-10-04T17:50:06.661Z,101668.94
2022-10-04T17:53:02.934Z,101671.31
2022-10-04T17:55:58.807Z,101668.66
2022-10-04T17:58:39.703Z,101675.69
2022-10-04T18:01:42.857Z,101692.03
2022-10-04T18:04:26.302Z,101697.72
2022-10-04T18:06:59.162Z,101690.53
2022-10-04T18:09:35.816Z,101694.16
2022-10-04T18:12:28.277Z,101691.50
2022-10-04T18:15:18.506Z,101695.50
2022-10-04T18:17:49.065Z,101693.53
2022-10-04T18:20:27.740Z,101703.63
2022-10-04T18:22:59.234Z,101711.09
2022-10-04T18:25:31.049Z,101704.00
2022-10-04T18:28:07.304Z,101706.28
2022-10-04T18:30:59.132Z,101698.00
2022-10-04T18:33:37.276Z,101707.91
2022-10-04T18:36:13.730Z,101709.97
2022-10-04T18:38:43.845Z,101711.19
2022-10-04T18:41:24.316Z,101719.28
2022-10-04T18:44:06.112Z,101719.03
2022-10-04T18:46:41.630Z,101725.72
2022-10-04T18:49:27.257Z,101727.03
2022-10-04T18:52:14.897Z,101724.66
2022-10-04T18:55:23.341Z,101730.13
2022-10-04T18:58:34.983Z,101729.03
2022-10-04T19:01:58.392Z,101730.31
2022-10-04T19:04:46.428Z,101739.31
2022-10-04T19:07:23.098Z,101733.78
2022-10-04T19:10:08.272Z,101741.94
2022-10-04T19:12:57.483Z,101744.81
2022-10-04T19:16:03.831Z,101748.91
2022-10-04T19:18:41.533Z,101752.84
2022-10-04T19:21:23.793Z,101749.44
2022-10-04T19:24:15.598Z,101750.88
2022-10-04T19:26:57.703Z,101754.09
2022-10-04T19:30:02.557Z,101758.44
2022-10-04T19:32:42.179Z,101756.50
2022-10-04T19:35:37.339Z,101763.72
2022-10-04T19:38:26.439Z,101766.75
2022-10-04T19:40:57.631Z,101775.75
2022-10-04T19:43:48.020Z,101776.41
2022-10-04T19:46:43.946Z,101777.19
2022-10-04T19:49:25.831Z,101774.75
2022-10-04T19:52:01.012Z,101773.03
2022-10-04T19:54:35.767Z,101779.25
2022-10-04T19:57:09.899Z,101771.78
2022-10-04T19:59:40.828Z,101776.16
2022-10-04T20:02:12.056Z,101777.38
2022-10-04T20:04:42.753Z,101788.13
2022-10-04T20:07:26.548Z,101786.84
2022-10-04T20:10:28.122Z,101796.50
2022-10-04T20:13:10.754Z,101794.78
2022-10-04T20:15:38.567Z,101789.41
2022-10-04T20:18:31.706Z,101793.81
2022-10-04T20:21:01.285Z,101789.25
2022-10-04T20:23:41.121Z,101797.53
2022-10-04T20:26:09.692Z,101799.13
2022-10-04T20:28:42.803Z,101799.28
2022-10-04T20:31:19.138Z,101808.16
2022-10-04T20:33:48.924Z,101819.25
2022-10-04T20:36:19.461Z,101817.28
2022-10-04T20:39:04.072Z,101824.31
2022-10-04T20:41:51.393Z,101832.25
2022-10-04T20:44:57.622Z,101830.88
2022-10-04T20:47:46.328Z,101831.53
2022-10-04T20:50:14.097Z,101836.59
2022-10-04T20:52:53.644Z,101844.63
2022-10-04T20:55:32.819Z,101838.22
2022-10-04T20:58:21.053Z,101836.50
2022-10-04T21:00:59.940Z,101840.75
2022-10-04T21:03:27.325Z,101855.50
2022-10-04T21:06:12.037Z,101855.25
2022-10-04T21:08:40.894Z,101846.09
2022-10-04T21:11:20.076Z,101844.13
2022-10-04T21:13:48.613Z,101855.03
2022-10-04T21:16:41.115Z,101848.25
2022-10-04T21:19:33.655Z,101849.78
2022-10-04T21:22:04.742Z,101850.81
2022-10-04T21:24:40.605Z,101855.41
2022-10-04T21:27:24.655Z,101863.56
2022-10-04T21:29:53.681Z,101856.31
2022-10-04T21:32:25.481Z,101866.66
2022-10-04T21:34:54.427Z,101863.09
2022-10-04T21:37:22.132Z,101869.97
2022-10-04T21:39:49.609Z,101871.22
2022-10-04T21:42:17.243Z,101871.69
2022-10-04T21:44:47.348Z,101878.81
2022-10-04T21:47:14.995Z,101884.31
2022-10-04T21:49:42.485Z,101888.00
2022-10-04T21:52:09.808Z,101895.47
2022-10-04T21:54:37.180Z,101894.75
2022-10-04T21:57:04.565Z,101900.06
2022-10-04T21:59:32.290Z,101895.22
2022-10-04T22:01:59.575Z,101903.16
2022-10-04T22:04:27.014Z,101909.03
2022-10-04T22:06:54.334Z,101906.44
2022-10-04T22:09:21.638Z,101901.53
2022-10-04T22:11:48.969Z,101908.63
2022-10-04T22:14:16.330Z,101899.75
2022-10-04T22:16:44.182Z,101893.09
2022-10-04T22:19:11.708Z,101894.47
2022-10-04T22:21:39.005Z,101892.88
2022-10-04T22:24:16.650Z,101896.91
2022-10-04T22:26:44.526Z,101893.34
2022-10-04T22:29:14.632Z,101899.59
2022-10-04T22:31:47.289Z,101893.81
2022-10-04T22:34:23.560Z,101889.56
2022-10-04T22:36:54.342Z,101898.88
2022-10-04T22:39:22.043Z,101906.59
2022-10-04T22:41:58.437Z,101907.97
2022-10-04T22:44:29.382Z,101914.16
2022-10-04T22:46:59.779Z,101914.41
2022-10-04T22:49:30.477Z,101912.94
2022-10-04T22:51:59.551Z,101907.66
2022-10-04T22:54:34.896Z,101907.06
2022-10-04T22:57:02.279Z,101903.38
2022-10-04T22:59:37.839Z,101901.69
2022-10-04T23:02:26.905Z,101900.97
2022-10-04T23:04:56.931Z,101895.13
2022-10-04T23:07:24.463Z,101892.97
2022-10-04T23:09:52.092Z,101894.44
2022-10-04T23:12:19.420Z,101889.41
2022-10-04T23:14:46.729Z,101886.97
2022-10-04T23:17:33.409Z,101888.81
2022-10-04T23:20:15.848Z,101889.28
2022-10-04T23:22:45.389Z,101893.41
2022-10-04T23:25:25.992Z,101899.38
2022-10-04T23:27:56.718Z,101903.28
2022-10-04T23:30:24.912Z,101905.25
2022-10-04T23:32:57.015Z,101898.00
2022-10-04T23:35:27.914Z,101897.88
2022-10-04T23:37:55.223Z,101903.41
2022-10-04T23:40:24.453Z,101903.28
2022-10-04T23:42:56.417Z,101904.78
2022-10-04T23:45:26.415Z,101900.06
2022-10-04T23:47:56.148Z,101904.56
2022-10-04T23:50:38.582Z,101904.88
2022-10-04T23:53:12.470Z,101907.97
2022-10-04T23:55:42.471Z,101901.53
2022-10-04T23:58:14.629Z,101894.31
